Pagrindinis puslapis
METAR-TAF:

METAR-TAF

Oro uostai :

Tabukas, Saudo Arabija

platuma: 28-22N, ilguma: 036-36E, Aukštis: 778 m

Dabartinis oras

Ataskaita buvo paskelbta 24 minutes, ne 15:00 UTC
Vėjas 15 kt iš Pietvakarių
Temperatūra 37°C
Drėgmė 10%
Slėgis 1010 hPa
Matomumas 10 km arba daugiau
nėra debesų žemiau 1500 m ir nėra kamuolinių lietaus debesų

METAR: OETB 251500Z 23015KT CAVOK 37/01 Q1010 NOSIG

Laikas: 18:24 (15:24 UTC)

Prognozė

Ataskaita buvo paskelbta 4 valandos ir 24 minutes, ne 11:00 UTC
Prognozė galioja nuo 25 metu 12 UTC su 26 metu 18 UTC
Vėjas 14 kt iš Vakarų/Pietvakarių
Matomumas 10 km arba daugiau
nėra debesų žemiau 1500 m ir nėra kamuolinių lietaus debesų
Tapsmas
nuo 25 metu 18 UTC su 25 metu 20 UTC
Vėjas 3 kt nuo kintamojo kryptimis
Mažai debesys ne aukštis 2000 ft

TAF: OETB 251100Z 2512/2618 25014KT CAVOK BECMG 2518/2520 VRB03KT FEW020

Orai ataskaitas ir orų prognozės (METAR, TAF).

turimą stotys yra geltonos ir raudonos taškus žemėlapyje.

Perkelti pele per norėdami pamatyti stoties vardą.

Tada spustelėkite, norėdami matyti oro stebėjimo ir prognozės.

Norėdami pakeisti žemėlapį: spustelėkite ant žalios mygtukų su juodo kryžiaus žemyn,; žalią mygtuką su brūkšneliu, jei norite nutolinti; arba žalių rodyklių gretimoms žemėlapius.


METAR-TAF: